createdAt,value
2019-05-20T00:01:55.302Z,23.37
2019-05-20T00:04:26.784Z,23.30
2019-05-20T00:06:58.559Z,23.20
2019-05-20T00:09:30.089Z,21.87
2019-05-20T00:12:01.641Z,22.80
2019-05-20T00:14:35.138Z,21.77
2019-05-20T00:17:06.673Z,22.60
2019-05-20T00:19:38.340Z,22.37
2019-05-20T00:22:10.993Z,23.10
2019-05-20T00:24:42.597Z,21.73
2019-05-20T00:27:14.903Z,23.10
2019-05-20T00:29:46.555Z,22.53
2019-05-20T00:32:18.247Z,22.67
2019-05-20T00:34:49.756Z,21.83
2019-05-20T00:37:21.394Z,22.67
2019-05-20T00:39:53.211Z,21.63
2019-05-20T00:42:24.968Z,22.57
2019-05-20T00:44:58.698Z,22.73
2019-05-20T00:47:30.223Z,22.63
2019-05-20T00:50:02.352Z,20.83
2019-05-20T00:52:35.516Z,20.30
2019-05-20T00:55:08.195Z,20.73
2019-05-20T00:57:39.856Z,21.93
2019-05-20T01:00:11.662Z,20.27
2019-05-20T01:02:55.988Z,21.87
2019-05-20T01:05:18.281Z,22.17
2019-05-20T01:07:50.025Z,22.57
2019-05-20T01:10:21.652Z,22.30
2019-05-20T01:12:54.600Z,23.77
2019-05-20T01:15:26.809Z,23.23
2019-05-20T01:17:58.431Z,24.13
2019-05-20T01:20:30.038Z,25.20
2019-05-20T01:23:01.582Z,25.13
2019-05-20T01:25:33.133Z,25.67
2019-05-20T01:28:04.679Z,25.87
2019-05-20T01:30:36.738Z,25.97
2019-05-20T01:33:13.669Z,25.93
2019-05-20T01:35:41.919Z,28.37
2019-05-20T01:38:16.035Z,28.33
2019-05-20T01:40:47.561Z,27.70
2019-05-20T01:43:19.366Z,26.47
2019-05-20T01:45:51.145Z,25.73
2019-05-20T01:48:22.729Z,25.60
2019-05-20T01:50:54.236Z,24.77
2019-05-20T01:53:26.083Z,25.80
2019-05-20T01:55:57.621Z,23.90
2019-05-20T01:58:29.152Z,23.80
2019-05-20T02:01:01.347Z,22.57
2019-05-20T02:03:32.896Z,21.33
2019-05-20T02:06:04.522Z,22.07
2019-05-20T02:08:38.111Z,22.10
2019-05-20T02:11:09.962Z,22.07
2019-05-20T02:13:54.345Z,22.60
2019-05-20T02:16:26.851Z,21.83
2019-05-20T02:18:58.950Z,22.30
2019-05-20T02:21:30.685Z,21.37
2019-05-20T02:24:02.444Z,22.60
2019-05-20T02:26:33.944Z,22.23
2019-05-20T02:29:05.652Z,24.07
2019-05-20T02:31:37.199Z,23.43
2019-05-20T02:34:08.926Z,22.93
2019-05-20T02:36:40.441Z,23.47
2019-05-20T02:39:11.990Z,22.13
2019-05-20T02:41:43.516Z,23.07
2019-05-20T02:44:15.056Z,24.03
2019-05-20T02:46:46.655Z,21.57
2019-05-20T02:49:18.229Z,22.93
2019-05-20T02:51:49.766Z,21.87
2019-05-20T02:54:21.530Z,22.40
2019-05-20T02:56:53.297Z,23.43
2019-05-20T02:59:24.927Z,22.13
2019-05-20T03:01:57.000Z,22.77
2019-05-20T03:04:28.920Z,21.80
2019-05-20T03:07:00.459Z,23.33
2019-05-20T03:09:32.507Z,23.13
2019-05-20T03:12:04.059Z,23.27
2019-05-20T03:14:35.602Z,22.57
2019-05-20T03:17:07.108Z,23.40
2019-05-20T03:19:38.825Z,24.63
2019-05-20T03:22:10.540Z,23.03
2019-05-20T03:24:42.288Z,24.17
2019-05-20T03:27:13.953Z,21.67
2019-05-20T03:29:45.571Z,22.67
2019-05-20T03:32:17.445Z,22.17
2019-05-20T03:34:58.830Z,23.03
2019-05-20T03:37:24.041Z,22.77
2019-05-20T03:39:55.597Z,22.83
2019-05-20T03:42:27.303Z,21.83
2019-05-20T03:44:58.849Z,23.50
2019-05-20T03:47:30.586Z,20.87
2019-05-20T03:50:02.233Z,20.53
2019-05-20T03:52:33.839Z,20.10
2019-05-20T03:55:06.795Z,19.40
2019-05-20T03:57:38.314Z,18.67
2019-05-20T04:00:11.397Z,19.47
2019-05-20T04:02:43.434Z,18.17
2019-05-20T04:05:17.098Z,19.20
2019-05-20T04:07:48.867Z,17.43
2019-05-20T04:10:20.719Z,16.83
2019-05-20T04:12:52.337Z,17.20
2019-05-20T04:15:23.867Z,17.33
2019-05-20T04:17:55.503Z,16.57
2019-05-20T04:20:27.031Z,17.13
2019-05-20T04:22:58.629Z,17.70
2019-05-20T04:25:30.177Z,17.40
2019-05-20T04:28:01.824Z,18.30
2019-05-20T04:30:33.338Z,20.30
2019-05-20T04:33:05.293Z,19.27
2019-05-20T04:35:36.787Z,21.23
2019-05-20T04:38:08.391Z,20.30
2019-05-20T04:40:40.118Z,22.27
2019-05-20T04:43:11.669Z,21.90
2019-05-20T04:45:43.124Z,22.93
2019-05-20T04:48:14.618Z,21.33
2019-05-20T04:50:46.464Z,21.13
2019-05-20T04:53:18.093Z,22.23
2019-05-20T04:55:49.661Z,22.17
2019-05-20T04:58:21.403Z,23.20
2019-05-20T05:00:55.847Z,23.57
2019-05-20T05:03:27.354Z,24.23
2019-05-20T05:05:58.854Z,24.90
2019-05-20T05:08:33.376Z,23.07
2019-05-20T05:11:04.917Z,24.17
2019-05-20T05:13:36.870Z,24.47
2019-05-20T05:16:08.704Z,23.53
2019-05-20T05:18:40.503Z,23.70
2019-05-20T05:21:12.154Z,22.77
2019-05-20T05:23:57.994Z,22.17
2019-05-20T05:26:17.042Z,21.33
2019-05-20T05:29:01.530Z,21.97
2019-05-20T05:31:33.082Z,21.27
2019-05-20T05:34:04.846Z,21.90
2019-05-20T05:36:36.653Z,22.10
2019-05-20T05:39:08.881Z,21.63
2019-05-20T05:41:41.085Z,22.07
2019-05-20T05:44:12.639Z,22.37
2019-05-20T05:46:44.180Z,21.60
2019-05-20T05:49:15.727Z,21.33
2019-05-20T05:51:47.329Z,21.30
2019-05-20T05:54:18.847Z,20.57
2019-05-20T05:56:50.417Z,19.30
2019-05-20T05:59:22.147Z,19.37
2019-05-20T06:01:53.720Z,19.40
2019-05-20T06:04:25.504Z,18.97
2019-05-20T06:06:58.424Z,18.37
2019-05-20T06:09:29.936Z,16.63
2019-05-20T06:12:01.512Z,17.83
2019-05-20T06:14:33.000Z,16.20
2019-05-20T06:17:04.522Z,16.50
2019-05-20T06:19:36.544Z,16.23
2019-05-20T06:22:08.048Z,15.93
2019-05-20T06:24:39.574Z,15.90
2019-05-20T06:27:11.056Z,14.77
2019-05-20T06:29:42.590Z,15.23
2019-05-20T06:32:14.258Z,15.13
2019-05-20T06:34:45.751Z,15.70
2019-05-20T06:37:19.380Z,15.63
2019-05-20T06:39:51.406Z,16.33
2019-05-20T06:42:23.198Z,14.70
2019-05-20T06:44:57.317Z,15.13
2019-05-20T06:47:29.070Z,15.37
2019-05-20T06:50:00.761Z,14.90
2019-05-20T06:52:35.698Z,13.20
2019-05-20T06:55:07.268Z,14.20
2019-05-20T06:57:39.058Z,14.43
2019-05-20T07:00:13.136Z,13.57
2019-05-20T07:02:44.802Z,13.60
2019-05-20T07:05:16.839Z,15.80
2019-05-20T07:07:48.373Z,15.30
2019-05-20T07:10:20.101Z,15.20
2019-05-20T07:12:51.648Z,16.77
2019-05-20T07:15:23.238Z,15.67
2019-05-20T07:17:54.779Z,15.63
2019-05-20T07:20:26.543Z,14.37
2019-05-20T07:22:58.105Z,14.90
2019-05-20T07:25:29.722Z,15.13
2019-05-20T07:28:01.308Z,13.90
2019-05-20T07:30:34.649Z,15.67
2019-05-20T07:33:06.401Z,15.23
2019-05-20T07:35:37.940Z,15.23
2019-05-20T07:38:09.424Z,14.50
2019-05-20T07:40:41.098Z,15.13
2019-05-20T07:43:12.645Z,14.93
2019-05-20T07:45:44.662Z,12.73
2019-05-20T07:48:16.870Z,13.10
2019-05-20T07:50:48.965Z,12.90
2019-05-20T07:53:21.748Z,11.73
2019-05-20T07:56:14.157Z,11.70
2019-05-20T07:58:50.627Z,11.50
2019-05-20T08:01:22.162Z,11.63
2019-05-20T08:03:55.250Z,12.30
2019-05-20T08:06:26.874Z,11.80
2019-05-20T08:08:58.382Z,11.87
2019-05-20T08:11:29.919Z,11.70
2019-05-20T08:14:01.495Z,12.03
2019-05-20T08:16:33.294Z,12.43
2019-05-20T08:19:05.179Z,13.27
2019-05-20T08:21:36.852Z,13.33
2019-05-20T08:24:08.414Z,14.13
2019-05-20T08:26:39.920Z,14.10
2019-05-20T08:29:11.456Z,14.57
2019-05-20T08:31:43.021Z,13.70
2019-05-20T08:34:15.179Z,13.80
2019-05-20T08:36:50.086Z,14.57
2019-05-20T08:39:21.767Z,15.73
2019-05-20T08:41:53.304Z,14.47
2019-05-20T08:44:24.797Z,14.97
2019-05-20T08:47:00.620Z,15.23
2019-05-20T08:49:32.235Z,16.30
2019-05-20T08:52:06.734Z,15.77
2019-05-20T08:54:40.471Z,13.83
2019-05-20T08:57:12.136Z,13.53
2019-05-20T08:59:43.664Z,14.20
2019-05-20T09:02:15.127Z,13.40
2019-05-20T09:04:46.790Z,13.83
2019-05-20T09:07:18.482Z,14.77
2019-05-20T09:09:50.025Z,14.30
2019-05-20T09:12:21.547Z,14.70
2019-05-20T09:14:52.982Z,14.03
2019-05-20T09:17:24.550Z,13.87
2019-05-20T09:19:56.066Z,11.53
2019-05-20T09:22:27.509Z,12.50
2019-05-20T09:24:59.203Z,13.27
2019-05-20T09:27:30.833Z,12.87
2019-05-20T09:30:02.873Z,12.43
2019-05-20T09:32:42.600Z,12.00
2019-05-20T09:35:11.799Z,13.20
2019-05-20T09:37:43.397Z,12.70
2019-05-20T09:40:39.482Z,13.70
2019-05-20T09:43:11.515Z,14.10
2019-05-20T09:45:43.831Z,14.40
2019-05-20T09:48:15.958Z,12.77
2019-05-20T09:50:47.474Z,13.30
2019-05-20T09:53:20.592Z,13.70
2019-05-20T09:55:52.097Z,13.37
2019-05-20T09:58:23.600Z,12.03
2019-05-20T10:00:55.070Z,13.43
2019-05-20T10:03:26.836Z,13.27
2019-05-20T10:05:58.315Z,13.37
2019-05-20T10:08:38.873Z,12.67
2019-05-20T10:11:03.050Z,13.67
2019-05-20T10:13:34.870Z,13.23
2019-05-20T10:16:06.497Z,13.43
2019-05-20T10:18:39.367Z,15.60
2019-05-20T10:21:11.188Z,16.77
2019-05-20T10:23:42.653Z,17.20
2019-05-20T10:26:14.074Z,18.27
2019-05-20T10:28:47.353Z,20.27
2019-05-20T10:31:19.742Z,21.37
2019-05-20T10:33:52.337Z,20.20
2019-05-20T10:36:23.970Z,21.73
2019-05-20T10:38:59.091Z,20.63
2019-05-20T10:41:30.551Z,22.00
2019-05-20T10:44:02.220Z,22.53
2019-05-20T10:46:33.813Z,22.90
2019-05-20T10:49:05.346Z,22.83
2019-05-20T10:51:37.000Z,19.83
2019-05-20T10:54:08.657Z,20.93
2019-05-20T10:56:40.450Z,21.33
2019-05-20T10:59:12.644Z,21.13
2019-05-20T11:01:44.372Z,20.83
2019-05-20T11:04:16.066Z,23.47
2019-05-20T11:06:47.586Z,21.47
2019-05-20T11:09:19.239Z,22.20
2019-05-20T11:11:50.858Z,24.30
2019-05-20T11:14:24.458Z,23.60
2019-05-20T11:16:55.898Z,22.00
2019-05-20T11:19:27.418Z,21.27
2019-05-20T11:21:59.074Z,21.37
2019-05-20T11:24:30.620Z,21.53
2019-05-20T11:27:02.184Z,20.00
2019-05-20T11:29:33.715Z,23.23
2019-05-20T11:32:05.571Z,20.47
2019-05-20T11:34:37.168Z,21.03
2019-05-20T11:37:08.911Z,22.20
2019-05-20T11:39:40.493Z,21.40
2019-05-20T11:42:12.076Z,22.17
2019-05-20T11:44:43.713Z,20.17
2019-05-20T11:47:15.445Z,19.80
2019-05-20T11:49:47.147Z,21.27
2019-05-20T11:52:18.830Z,19.97
2019-05-20T11:54:50.578Z,20.17
2019-05-20T11:57:22.314Z,21.93
2019-05-20T11:59:53.846Z,22.90
2019-05-20T12:02:25.567Z,23.93
2019-05-20T12:04:57.295Z,25.40
2019-05-20T12:07:28.940Z,24.23
2019-05-20T12:10:00.482Z,25.10
2019-05-20T12:12:33.691Z,24.03
2019-05-20T12:15:07.107Z,23.73
2019-05-20T12:17:39.452Z,24.87
2019-05-20T12:20:12.914Z,23.40
2019-05-20T12:22:44.627Z,23.60
2019-05-20T12:25:16.145Z,25.20
2019-05-20T12:27:48.948Z,23.60
2019-05-20T12:30:21.234Z,26.60
2019-05-20T12:33:15.630Z,24.30
2019-05-20T12:35:26.349Z,27.73
2019-05-20T12:37:57.879Z,27.17
2019-05-20T12:40:29.862Z,28.57
2019-05-20T12:43:01.263Z,27.87
2019-05-20T12:45:32.956Z,25.87
2019-05-20T12:48:04.422Z,24.53
2019-05-20T12:50:35.948Z,24.47
2019-05-20T12:53:07.459Z,24.23
2019-05-20T12:55:39.013Z,25.33
2019-05-20T12:58:10.586Z,24.83
2019-05-20T13:00:42.095Z,25.30
2019-05-20T13:03:13.777Z,26.97
2019-05-20T13:05:45.594Z,27.77
2019-05-20T13:08:17.335Z,28.43
2019-05-20T13:10:48.952Z,29.17
2019-05-20T13:13:20.468Z,28.70
2019-05-20T13:15:52.031Z,28.97
2019-05-20T13:18:23.503Z,29.93
2019-05-20T13:20:55.102Z,30.37
2019-05-20T13:23:26.787Z,26.47
2019-05-20T13:25:58.502Z,25.27
2019-05-20T13:28:30.023Z,25.63
2019-05-20T13:31:01.605Z,23.87
2019-05-20T13:33:33.103Z,24.10
2019-05-20T13:36:04.664Z,24.67
2019-05-20T13:38:36.298Z,25.93
2019-05-20T13:41:07.981Z,25.83
2019-05-20T13:43:40.486Z,27.77
2019-05-20T13:46:12.011Z,29.37
2019-05-20T13:48:43.580Z,29.00
2019-05-20T13:51:15.115Z,31.60
2019-05-20T13:53:47.110Z,28.37
2019-05-20T13:56:18.643Z,31.53
2019-05-20T13:58:50.052Z,34.67
2019-05-20T14:01:21.810Z,35.50
2019-05-20T14:03:56.879Z,33.30
2019-05-20T14:06:26.625Z,35.73
2019-05-20T14:08:59.298Z,32.80
2019-05-20T14:11:34.592Z,35.70
2019-05-20T14:14:04.469Z,35.63
2019-05-20T14:16:36.035Z,36.63
2019-05-20T14:19:07.802Z,38.87
2019-05-20T14:21:39.347Z,39.90
2019-05-20T14:24:11.455Z,37.37
2019-05-20T14:26:43.421Z,33.70
2019-05-20T14:29:15.221Z,34.17
2019-05-20T14:31:46.753Z,36.60
2019-05-20T14:34:18.801Z,36.63
2019-05-20T14:36:52.987Z,33.13
2019-05-20T14:39:23.690Z,33.27
2019-05-20T14:41:55.293Z,35.30
2019-05-20T14:44:26.865Z,32.07
2019-05-20T14:46:58.553Z,33.77
2019-05-20T14:49:30.183Z,35.93
2019-05-20T14:52:01.961Z,33.60
2019-05-20T14:54:33.506Z,33.23
2019-05-20T14:57:05.095Z,32.10
2019-05-20T14:59:36.660Z,32.03
2019-05-20T15:02:08.507Z,28.97
2019-05-20T15:04:40.522Z,28.73
2019-05-20T15:07:12.087Z,26.80
2019-05-20T15:09:44.027Z,26.27
2019-05-20T15:12:15.815Z,26.23
2019-05-20T15:14:49.032Z,23.90
2019-05-20T15:17:20.606Z,24.17
2019-05-20T15:19:52.153Z,23.17
2019-05-20T15:22:23.715Z,21.63
2019-05-20T15:24:55.466Z,21.40
2019-05-20T15:27:27.160Z,20.60
2019-05-20T15:30:00.625Z,19.73
2019-05-20T15:32:34.235Z,19.60
2019-05-20T15:35:06.536Z,18.67
2019-05-20T15:37:38.159Z,17.17
2019-05-20T15:40:10.307Z,16.17
2019-05-20T15:42:41.914Z,16.53
2019-05-20T15:45:14.137Z,16.20
2019-05-20T15:47:48.255Z,16.60
2019-05-20T15:50:20.662Z,15.40
2019-05-20T15:52:52.353Z,15.60
2019-05-20T15:55:24.012Z,16.20
2019-05-20T15:57:55.622Z,17.67
2019-05-20T16:00:27.332Z,17.17
2019-05-20T16:02:58.992Z,17.30
2019-05-20T16:05:30.810Z,17.63
2019-05-20T16:08:02.458Z,17.43
2019-05-20T16:10:34.112Z,18.03
2019-05-20T16:13:05.723Z,18.20
2019-05-20T16:15:37.394Z,18.67
2019-05-20T16:18:10.195Z,19.00
2019-05-20T16:20:42.102Z,18.90
2019-05-20T16:23:13.858Z,18.13
2019-05-20T16:25:45.698Z,20.43
2019-05-20T16:28:17.446Z,20.23
2019-05-20T16:30:49.082Z,21.23
2019-05-20T16:33:20.853Z,21.50
2019-05-20T16:35:52.543Z,23.93
2019-05-20T16:38:24.273Z,24.70
2019-05-20T16:40:55.894Z,23.83
2019-05-20T16:43:27.545Z,25.27
2019-05-20T16:45:59.231Z,25.90
2019-05-20T16:48:32.319Z,26.47
2019-05-20T16:51:05.549Z,27.67
2019-05-20T16:53:37.307Z,28.03
2019-05-20T16:56:09.041Z,28.80
2019-05-20T16:58:40.817Z,26.97
2019-05-20T17:01:12.744Z,27.60
2019-05-20T17:03:44.693Z,27.97
2019-05-20T17:06:17.902Z,27.20
2019-05-20T17:08:49.503Z,27.07
2019-05-20T17:11:21.706Z,23.00
2019-05-20T17:13:53.240Z,22.13
2019-05-20T17:16:24.793Z,23.97
2019-05-20T17:18:56.568Z,23.60
2019-05-20T17:21:31.029Z,24.83
2019-05-20T17:24:03.029Z,24.07
2019-05-20T17:26:35.066Z,24.13
2019-05-20T17:29:08.388Z,23.67
2019-05-20T17:31:41.246Z,20.80
2019-05-20T17:34:12.872Z,19.93
2019-05-20T17:36:44.813Z,17.60
2019-05-20T17:39:16.425Z,19.20
2019-05-20T17:41:48.091Z,18.00
2019-05-20T17:44:19.713Z,17.47
2019-05-20T17:46:51.443Z,17.73
2019-05-20T17:49:23.085Z,18.40
2019-05-20T17:51:54.679Z,19.00
2019-05-20T17:54:26.614Z,19.57
2019-05-20T17:56:59.850Z,20.97
2019-05-20T17:59:31.802Z,23.57
2019-05-20T18:02:06.178Z,24.10
2019-05-20T18:04:37.753Z,22.93
2019-05-20T18:07:09.312Z,24.83
2019-05-20T18:09:44.771Z,25.20
2019-05-20T18:12:16.547Z,26.63
2019-05-20T18:14:52.580Z,29.60
2019-05-20T18:17:24.731Z,29.20
2019-05-20T18:19:56.422Z,27.97
2019-05-20T18:22:28.200Z,25.07
2019-05-20T18:24:59.683Z,25.07
2019-05-20T18:27:31.293Z,26.03
2019-05-20T18:30:02.949Z,26.43
2019-05-20T18:32:34.664Z,25.97
2019-05-20T18:35:06.589Z,24.43
2019-05-20T18:37:39.286Z,25.40
2019-05-20T18:40:14.450Z,25.93
2019-05-20T18:42:45.817Z,25.77
2019-05-20T18:45:17.664Z,27.60
2019-05-20T18:47:49.307Z,26.97
2019-05-20T18:50:20.897Z,26.43
2019-05-20T18:52:52.715Z,26.80
2019-05-20T18:55:24.447Z,27.17
2019-05-20T18:57:56.293Z,27.23
2019-05-20T19:00:29.704Z,27.97
2019-05-20T19:03:01.483Z,29.77
2019-05-20T19:05:33.442Z,29.90
2019-05-20T19:08:05.415Z,31.73
2019-05-20T19:10:36.988Z,30.30
2019-05-20T19:13:08.897Z,30.97
2019-05-20T19:15:41.198Z,32.00
2019-05-20T19:18:12.793Z,33.40
2019-05-20T19:20:44.392Z,34.77
2019-05-20T19:23:16.215Z,34.27
2019-05-20T19:25:47.935Z,33.27
2019-05-20T19:28:19.721Z,33.87
2019-05-20T19:30:51.313Z,30.97
2019-05-20T19:33:22.865Z,26.17
2019-05-20T19:35:54.496Z,26.93
2019-05-20T19:38:26.134Z,26.50
2019-05-20T19:40:57.837Z,27.60
2019-05-20T19:43:29.690Z,30.00
2019-05-20T19:46:01.378Z,29.80
2019-05-20T19:48:33.101Z,29.97
2019-05-20T19:51:05.405Z,31.57
2019-05-20T19:53:37.300Z,29.97
2019-05-20T19:56:09.210Z,31.83
2019-05-20T19:58:40.952Z,29.53
2019-05-20T20:01:12.920Z,29.60
2019-05-20T20:03:44.572Z,30.30
2019-05-20T20:06:16.487Z,28.67
2019-05-20T20:08:48.648Z,31.43
2019-05-20T20:11:20.464Z,31.20
2019-05-20T20:13:52.170Z,31.30
2019-05-20T20:16:24.012Z,31.53
2019-05-20T20:18:55.864Z,31.53
2019-05-20T20:21:27.613Z,32.23
2019-05-20T20:23:59.445Z,31.87
2019-05-20T20:26:31.106Z,32.43
2019-05-20T20:29:02.736Z,31.77
2019-05-20T20:31:35.417Z,31.93
2019-05-20T20:34:07.043Z,32.63
2019-05-20T20:36:40.277Z,33.17
2019-05-20T20:39:12.037Z,33.67
2019-05-20T20:41:44.041Z,35.13
2019-05-20T20:44:19.343Z,34.20
2019-05-20T20:46:51.592Z,35.47
2019-05-20T20:49:23.166Z,35.47
2019-05-20T20:51:57.932Z,35.57
2019-05-20T20:54:29.620Z,36.33
2019-05-20T20:57:01.431Z,32.53
2019-05-20T20:59:33.140Z,34.17
2019-05-20T21:02:04.895Z,33.50
2019-05-20T21:04:36.597Z,33.93
2019-05-20T21:07:08.213Z,34.37
2019-05-20T21:09:39.897Z,31.77
2019-05-20T21:12:11.774Z,31.57
2019-05-20T21:14:43.961Z,33.57
2019-05-20T21:17:15.611Z,36.37
2019-05-20T21:19:47.085Z,34.27
2019-05-20T21:22:18.942Z,35.60
2019-05-20T21:24:51.550Z,37.10
2019-05-20T21:27:23.119Z,36.77
2019-05-20T21:29:54.645Z,37.57
2019-05-20T21:32:26.457Z,34.70
2019-05-20T21:34:58.257Z,36.90
2019-05-20T21:37:29.893Z,37.43
2019-05-20T21:40:01.583Z,35.73
2019-05-20T21:42:34.180Z,35.90
2019-05-20T21:45:07.419Z,35.33
2019-05-20T21:47:40.215Z,36.70
2019-05-20T21:50:12.427Z,33.37
2019-05-20T21:52:44.360Z,33.73
2019-05-20T21:55:16.253Z,31.43
2019-05-20T21:57:48.259Z,31.47
2019-05-20T22:00:27.859Z,33.07
2019-05-20T22:03:00.269Z,30.27
2019-05-20T22:05:32.295Z,29.57
2019-05-20T22:08:04.395Z,30.30
2019-05-20T22:10:36.724Z,27.93
2019-05-20T22:13:08.643Z,27.90
2019-05-20T22:15:40.386Z,31.10
2019-05-20T22:18:13.447Z,32.20
2019-05-20T22:20:45.097Z,29.47
2019-05-20T22:23:28.535Z,31.63
2019-05-20T22:26:00.193Z,30.83
2019-05-20T22:28:31.895Z,30.63
2019-05-20T22:31:03.698Z,29.07
2019-05-20T22:33:41.576Z,30.77
2019-05-20T22:36:10.534Z,29.40
2019-05-20T22:38:42.316Z,29.60
2019-05-20T22:41:14.105Z,27.30
2019-05-20T22:43:46.189Z,27.17
2019-05-20T22:46:18.263Z,28.43
2019-05-20T22:48:50.060Z,28.70
2019-05-20T22:51:22.166Z,29.03
2019-05-20T22:53:53.915Z,29.33
2019-05-20T22:56:26.173Z,28.43
2019-05-20T22:58:58.083Z,27.13
2019-05-20T23:01:31.147Z,24.57
2019-05-20T23:04:02.977Z,24.90
2019-05-20T23:06:34.633Z,25.33
2019-05-20T23:09:07.312Z,24.80
2019-05-20T23:11:39.397Z,25.17
2019-05-20T23:14:11.402Z,24.90
2019-05-20T23:16:43.320Z,26.60
2019-05-20T23:19:15.086Z,25.43
2019-05-20T23:21:46.875Z,25.40
2019-05-20T23:24:18.541Z,23.20
2019-05-20T23:26:50.728Z,20.33
2019-05-20T23:29:22.545Z,18.27
2019-05-20T23:31:54.321Z,21.50
2019-05-20T23:34:26.239Z,19.37
2019-05-20T23:36:58.164Z,17.97
2019-05-20T23:39:30.062Z,18.90
2019-05-20T23:42:01.841Z,19.33
2019-05-20T23:44:33.672Z,17.60
2019-05-20T23:47:05.808Z,17.07
2019-05-20T23:49:37.525Z,16.67
2019-05-20T23:52:09.459Z,17.07
2019-05-20T23:54:41.492Z,15.97
2019-05-20T23:57:13.662Z,17.33
2019-05-20T23:59:45.536Z,15.67
